sensor_id;sensor_type;location;lat;lon;timestamp;temperature;humidity
13256;DHT22;37913;48.370;10.930;2022-08-20T00:01:36;17.00;99.90
13256;DHT22;37913;48.370;10.930;2022-08-20T00:04:04;17.00;99.90
13256;DHT22;37913;48.370;10.930;2022-08-20T00:06:32;17.00;99.90
13256;DHT22;37913;48.370;10.930;2022-08-20T00:08:59;17.00;99.90
13256;DHT22;37913;48.370;10.930;2022-08-20T00:11:26;17.00;99.90
13256;DHT22;37913;48.370;10.930;2022-08-20T00:13:56;17.00;99.90
13256;DHT22;37913;48.370;10.930;2022-08-20T00:16:26;17.00;99.90
13256;DHT22;37913;48.370;10.930;2022-08-20T00:18:56;16.90;99.90
13256;DHT22;37913;48.370;10.930;2022-08-20T00:21:23;16.90;99.90
13256;DHT22;37913;48.370;10.930;2022-08-20T00:23:53;17.00;99.90
13256;DHT22;37913;48.370;10.930;2022-08-20T00:26:20;17.00;99.90
13256;DHT22;37913;48.370;10.930;2022-08-20T00:28:49;16.90;99.90
13256;DHT22;37913;48.370;10.930;2022-08-20T00:31:18;16.90;99.90
13256;DHT22;37913;48.370;10.930;2022-08-20T00:33:45;16.90;99.90
13256;DHT22;37913;48.370;10.930;2022-08-20T00:36:13;16.90;99.90
13256;DHT22;37913;48.370;10.930;2022-08-20T00:38:43;16.90;99.90
13256;DHT22;37913;48.370;10.930;2022-08-20T00:41:14;16.90;99.90
13256;DHT22;37913;48.370;10.930;2022-08-20T00:43:44;16.90;99.90
13256;DHT22;37913;48.370;10.930;2022-08-20T00:46:17;16.90;99.90
13256;DHT22;37913;48.370;10.930;2022-08-20T00:48:48;16.90;99.90
13256;DHT22;37913;48.370;10.930;2022-08-20T00:51:23;16.90;99.90
13256;DHT22;37913;48.370;10.930;2022-08-20T00:53:53;16.90;99.90
13256;DHT22;37913;48.370;10.930;2022-08-20T00:56:22;16.90;99.90
13256;DHT22;37913;48.370;10.930;2022-08-20T00:58:50;16.90;99.90
13256;DHT22;37913;48.370;10.930;2022-08-20T01:01:18;16.90;99.90
13256;DHT22;37913;48.370;10.930;2022-08-20T01:03:47;16.80;99.90
13256;DHT22;37913;48.370;10.930;2022-08-20T01:06:14;16.80;99.90
13256;DHT22;37913;48.370;10.930;2022-08-20T01:08:42;16.80;99.90
13256;DHT22;37913;48.370;10.930;2022-08-20T01:11:09;16.80;99.90
13256;DHT22;37913;48.370;10.930;2022-08-20T01:13:43;16.80;99.90
13256;DHT22;37913;48.370;10.930;2022-08-20T01:16:17;16.80;99.90
13256;DHT22;37913;48.370;10.930;2022-08-20T01:18:47;16.70;99.90
13256;DHT22;37913;48.370;10.930;2022-08-20T01:21:15;16.70;99.90
13256;DHT22;37913;48.370;10.930;2022-08-20T01:23:54;16.80;99.90
13256;DHT22;37913;48.370;10.930;2022-08-20T01:26:25;16.80;99.90
13256;DHT22;37913;48.370;10.930;2022-08-20T01:28:56;16.80;99.90
13256;DHT22;37913;48.370;10.930;2022-08-20T01:31:27;16.70;99.90
13256;DHT22;37913;48.370;10.930;2022-08-20T01:33:56;16.70;99.90
13256;DHT22;37913;48.370;10.930;2022-08-20T01:36:26;16.70;99.90
13256;DHT22;37913;48.370;10.930;2022-08-20T01:38:55;16.70;99.90
13256;DHT22;37913;48.370;10.930;2022-08-20T01:41:29;16.70;99.90
13256;DHT22;37913;48.370;10.930;2022-08-20T01:43:59;16.80;99.90
13256;DHT22;37913;48.370;10.930;2022-08-20T01:46:29;16.80;99.90
13256;DHT22;37913;48.370;10.930;2022-08-20T01:48:58;16.80;99.90
13256;DHT22;37913;48.370;10.930;2022-08-20T01:51:28;16.80;99.90
13256;DHT22;37913;48.370;10.930;2022-08-20T01:53:56;16.80;99.90
13256;DHT22;37913;48.370;10.930;2022-08-20T01:56:28;16.90;99.90
13256;DHT22;37913;48.370;10.930;2022-08-20T01:58:58;16.80;99.90
13256;DHT22;37913;48.370;10.930;2022-08-20T02:01:28;16.90;99.90
13256;DHT22;37913;48.370;10.930;2022-08-20T02:03:58;16.90;99.90
13256;DHT22;37913;48.370;10.930;2022-08-20T02:06:29;16.90;99.90
13256;DHT22;37913;48.370;10.930;2022-08-20T02:08:58;16.90;99.90
13256;DHT22;37913;48.370;10.930;2022-08-20T02:11:28;16.90;99.90
13256;DHT22;37913;48.370;10.930;2022-08-20T02:13:56;16.90;99.90
13256;DHT22;37913;48.370;10.930;2022-08-20T02:16:25;16.90;99.90
13256;DHT22;37913;48.370;10.930;2022-08-20T02:18:59;16.90;99.90
13256;DHT22;37913;48.370;10.930;2022-08-20T02:21:29;16.90;99.90
13256;DHT22;37913;48.370;10.930;2022-08-20T02:23:57;16.90;99.90
13256;DHT22;37913;48.370;10.930;2022-08-20T02:26:26;16.90;99.90
13256;DHT22;37913;48.370;10.930;2022-08-20T02:28:54;16.90;99.90
13256;DHT22;37913;48.370;10.930;2022-08-20T02:31:22;16.80;99.90
13256;DHT22;37913;48.370;10.930;2022-08-20T02:33:50;16.80;99.90
13256;DHT22;37913;48.370;10.930;2022-08-20T02:36:18;16.90;99.90
13256;DHT22;37913;48.370;10.930;2022-08-20T02:38:45;16.80;99.90
13256;DHT22;37913;48.370;10.930;2022-08-20T02:41:13;16.80;99.90
13256;DHT22;37913;48.370;10.930;2022-08-20T02:43:41;16.80;99.90
13256;DHT22;37913;48.370;10.930;2022-08-20T02:46:08;16.70;99.90
13256;DHT22;37913;48.370;10.930;2022-08-20T02:48:35;16.80;99.90
13256;DHT22;37913;48.370;10.930;2022-08-20T02:51:04;16.70;99.90
13256;DHT22;37913;48.370;10.930;2022-08-20T02:53:34;16.70;99.90
13256;DHT22;37913;48.370;10.930;2022-08-20T02:56:03;16.70;99.90
13256;DHT22;37913;48.370;10.930;2022-08-20T02:58:31;16.70;99.90
13256;DHT22;37913;48.370;10.930;2022-08-20T03:01:01;16.70;99.90
13256;DHT22;37913;48.370;10.930;2022-08-20T03:03:28;16.70;99.90
13256;DHT22;37913;48.370;10.930;2022-08-20T03:05:57;16.70;99.90
13256;DHT22;37913;48.370;10.930;2022-08-20T03:08:24;16.70;99.90
13256;DHT22;37913;48.370;10.930;2022-08-20T03:10:52;16.70;99.90
13256;DHT22;37913;48.370;10.930;2022-08-20T03:13:19;16.70;99.90
13256;DHT22;37913;48.370;10.930;2022-08-20T03:15:49;16.70;99.90
13256;DHT22;37913;48.370;10.930;2022-08-20T03:18:18;16.70;99.90
13256;DHT22;37913;48.370;10.930;2022-08-20T03:20:46;16.70;99.90
13256;DHT22;37913;48.370;10.930;2022-08-20T03:23:14;16.70;99.90
13256;DHT22;37913;48.370;10.930;2022-08-20T03:25:42;16.70;99.90
13256;DHT22;37913;48.370;10.930;2022-08-20T03:28:09;16.70;99.90
13256;DHT22;37913;48.370;10.930;2022-08-20T03:30:36;16.70;99.90
13256;DHT22;37913;48.370;10.930;2022-08-20T03:33:03;16.70;99.90
13256;DHT22;37913;48.370;10.930;2022-08-20T03:35:32;16.70;99.90
13256;DHT22;37913;48.370;10.930;2022-08-20T03:37:59;16.70;99.90
13256;DHT22;37913;48.370;10.930;2022-08-20T03:40:30;16.70;99.90
13256;DHT22;37913;48.370;10.930;2022-08-20T03:42:58;16.70;99.90
13256;DHT22;37913;48.370;10.930;2022-08-20T03:45:26;16.70;99.90
13256;DHT22;37913;48.370;10.930;2022-08-20T03:47:55;16.60;99.90
13256;DHT22;37913;48.370;10.930;2022-08-20T03:50:25;16.70;99.90
13256;DHT22;37913;48.370;10.930;2022-08-20T03:52:54;16.70;99.90
13256;DHT22;37913;48.370;10.930;2022-08-20T03:55:23;16.70;99.90
13256;DHT22;37913;48.370;10.930;2022-08-20T03:57:53;16.60;99.90
13256;DHT22;37913;48.370;10.930;2022-08-20T04:00:21;16.60;99.90
13256;DHT22;37913;48.370;10.930;2022-08-20T04:02:49;16.60;99.90
13256;DHT22;37913;48.370;10.930;2022-08-20T04:05:16;16.70;99.90
13256;DHT22;37913;48.370;10.930;2022-08-20T04:07:43;16.70;99.90
13256;DHT22;37913;48.370;10.930;2022-08-20T04:10:11;16.70;99.90
13256;DHT22;37913;48.370;10.930;2022-08-20T04:12:38;16.70;99.90
13256;DHT22;37913;48.370;10.930;2022-08-20T04:15:08;16.70;99.90
13256;DHT22;37913;48.370;10.930;2022-08-20T04:17:36;16.70;99.90
13256;DHT22;37913;48.370;10.930;2022-08-20T04:20:04;16.70;99.90
13256;DHT22;37913;48.370;10.930;2022-08-20T04:22:31;16.70;99.90
13256;DHT22;37913;48.370;10.930;2022-08-20T04:24:58;16.70;99.90
13256;DHT22;37913;48.370;10.930;2022-08-20T04:27:26;16.60;99.90
13256;DHT22;37913;48.370;10.930;2022-08-20T04:29:54;16.60;99.90
13256;DHT22;37913;48.370;10.930;2022-08-20T04:32:21;16.60;99.90
13256;DHT22;37913;48.370;10.930;2022-08-20T04:34:48;16.60;99.90
13256;DHT22;37913;48.370;10.930;2022-08-20T04:37:19;16.60;99.90
13256;DHT22;37913;48.370;10.930;2022-08-20T04:39:47;16.70;99.90
13256;DHT22;37913;48.370;10.930;2022-08-20T04:42:36;16.70;99.90
13256;DHT22;37913;48.370;10.930;2022-08-20T04:45:04;16.70;99.90
13256;DHT22;37913;48.370;10.930;2022-08-20T04:47:32;16.70;99.90
13256;DHT22;37913;48.370;10.930;2022-08-20T04:49:59;16.70;99.90
13256;DHT22;37913;48.370;10.930;2022-08-20T04:52:27;16.80;99.90
13256;DHT22;37913;48.370;10.930;2022-08-20T04:54:57;16.80;99.90
13256;DHT22;37913;48.370;10.930;2022-08-20T04:57:24;16.80;99.90
13256;DHT22;37913;48.370;10.930;2022-08-20T04:59:53;16.80;99.90
13256;DHT22;37913;48.370;10.930;2022-08-20T05:02:20;16.90;99.90
13256;DHT22;37913;48.370;10.930;2022-08-20T05:04:48;16.90;99.90
13256;DHT22;37913;48.370;10.930;2022-08-20T05:07:16;16.90;99.90
13256;DHT22;37913;48.370;10.930;2022-08-20T05:09:44;16.90;99.90
13256;DHT22;37913;48.370;10.930;2022-08-20T05:12:12;16.90;99.90
13256;DHT22;37913;48.370;10.930;2022-08-20T05:14:39;16.90;99.90
13256;DHT22;37913;48.370;10.930;2022-08-20T05:17:08;17.00;99.90
13256;DHT22;37913;48.370;10.930;2022-08-20T05:19:39;17.10;99.90
13256;DHT22;37913;48.370;10.930;2022-08-20T05:22:07;17.10;99.90
13256;DHT22;37913;48.370;10.930;2022-08-20T05:24:34;17.20;99.90
13256;DHT22;37913;48.370;10.930;2022-08-20T05:27:01;17.10;99.90
13256;DHT22;37913;48.370;10.930;2022-08-20T05:29:27;17.10;99.90
13256;DHT22;37913;48.370;10.930;2022-08-20T05:31:54;17.10;99.90
13256;DHT22;37913;48.370;10.930;2022-08-20T05:34:23;17.10;99.90
13256;DHT22;37913;48.370;10.930;2022-08-20T05:36:51;17.00;99.90
13256;DHT22;37913;48.370;10.930;2022-08-20T05:39:20;17.10;99.90
13256;DHT22;37913;48.370;10.930;2022-08-20T05:41:47;17.10;99.90
13256;DHT22;37913;48.370;10.930;2022-08-20T05:44:16;17.10;99.90
13256;DHT22;37913;48.370;10.930;2022-08-20T05:46:46;17.10;99.90
13256;DHT22;37913;48.370;10.930;2022-08-20T05:49:16;17.20;99.90
13256;DHT22;37913;48.370;10.930;2022-08-20T05:51:45;17.20;99.90
13256;DHT22;37913;48.370;10.930;2022-08-20T05:54:14;17.10;99.90
13256;DHT22;37913;48.370;10.930;2022-08-20T05:56:42;17.10;99.90
13256;DHT22;37913;48.370;10.930;2022-08-20T05:59:09;17.10;99.90
13256;DHT22;37913;48.370;10.930;2022-08-20T06:01:38;17.10;99.90
13256;DHT22;37913;48.370;10.930;2022-08-20T06:04:06;17.10;99.90
13256;DHT22;37913;48.370;10.930;2022-08-20T06:06:56;17.00;99.90
13256;DHT22;37913;48.370;10.930;2022-08-20T06:09:25;17.00;99.90
13256;DHT22;37913;48.370;10.930;2022-08-20T06:11:52;17.10;99.90
13256;DHT22;37913;48.370;10.930;2022-08-20T06:14:19;17.10;99.90
13256;DHT22;37913;48.370;10.930;2022-08-20T06:16:47;17.10;99.90
13256;DHT22;37913;48.370;10.930;2022-08-20T06:19:13;17.20;99.90
13256;DHT22;37913;48.370;10.930;2022-08-20T06:21:41;17.30;99.90
13256;DHT22;37913;48.370;10.930;2022-08-20T06:24:09;17.20;99.90
13256;DHT22;37913;48.370;10.930;2022-08-20T06:26:36;17.30;99.90
13256;DHT22;37913;48.370;10.930;2022-08-20T06:29:05;17.30;99.90
13256;DHT22;37913;48.370;10.930;2022-08-20T06:31:32;17.40;99.90
13256;DHT22;37913;48.370;10.930;2022-08-20T06:33:59;17.40;99.90
13256;DHT22;37913;48.370;10.930;2022-08-20T06:36:27;17.60;99.90
13256;DHT22;37913;48.370;10.930;2022-08-20T06:38:54;17.30;99.90
13256;DHT22;37913;48.370;10.930;2022-08-20T06:41:24;17.40;99.90
13256;DHT22;37913;48.370;10.930;2022-08-20T06:43:51;17.30;99.90
13256;DHT22;37913;48.370;10.930;2022-08-20T06:46:18;17.40;99.90
13256;DHT22;37913;48.370;10.930;2022-08-20T06:48:48;17.40;99.90
13256;DHT22;37913;48.370;10.930;2022-08-20T06:51:15;17.60;99.90
13256;DHT22;37913;48.370;10.930;2022-08-20T06:53:42;17.60;99.90
13256;DHT22;37913;48.370;10.930;2022-08-20T06:56:09;17.80;99.90
13256;DHT22;37913;48.370;10.930;2022-08-20T06:58:38;17.90;99.90
13256;DHT22;37913;48.370;10.930;2022-08-20T07:01:06;17.80;99.90
13256;DHT22;37913;48.370;10.930;2022-08-20T07:03:33;17.90;99.90
13256;DHT22;37913;48.370;10.930;2022-08-20T07:06:02;18.00;99.90
13256;DHT22;37913;48.370;10.930;2022-08-20T07:08:29;18.00;99.90
13256;DHT22;37913;48.370;10.930;2022-08-20T07:10:56;18.00;99.90
13256;DHT22;37913;48.370;10.930;2022-08-20T07:13:24;17.80;99.90
13256;DHT22;37913;48.370;10.930;2022-08-20T07:15:52;18.00;99.90
13256;DHT22;37913;48.370;10.930;2022-08-20T07:18:19;18.30;99.90
13256;DHT22;37913;48.370;10.930;2022-08-20T07:20:47;18.40;99.90
13256;DHT22;37913;48.370;10.930;2022-08-20T07:23:14;18.40;99.90
13256;DHT22;37913;48.370;10.930;2022-08-20T07:25:42;18.40;99.90
13256;DHT22;37913;48.370;10.930;2022-08-20T07:28:13;18.70;99.90
13256;DHT22;37913;48.370;10.930;2022-08-20T07:30:40;18.80;99.90
13256;DHT22;37913;48.370;10.930;2022-08-20T07:33:28;18.70;99.90
13256;DHT22;37913;48.370;10.930;2022-08-20T07:35:55;18.80;99.90
13256;DHT22;37913;48.370;10.930;2022-08-20T07:38:23;19.10;99.90
13256;DHT22;37913;48.370;10.930;2022-08-20T07:40:51;19.30;99.90
13256;DHT22;37913;48.370;10.930;2022-08-20T07:43:19;19.50;99.90
13256;DHT22;37913;48.370;10.930;2022-08-20T07:45:47;19.40;99.90
13256;DHT22;37913;48.370;10.930;2022-08-20T07:48:14;19.10;99.90
13256;DHT22;37913;48.370;10.930;2022-08-20T07:50:43;19.10;99.90
13256;DHT22;37913;48.370;10.930;2022-08-20T07:53:11;19.20;99.90
13256;DHT22;37913;48.370;10.930;2022-08-20T07:55:38;18.90;99.90
13256;DHT22;37913;48.370;10.930;2022-08-20T07:58:08;18.90;99.90
13256;DHT22;37913;48.370;10.930;2022-08-20T08:00:36;19.20;99.90
13256;DHT22;37913;48.370;10.930;2022-08-20T08:03:05;19.50;99.90
13256;DHT22;37913;48.370;10.930;2022-08-20T08:05:34;19.50;99.90
13256;DHT22;37913;48.370;10.930;2022-08-20T08:08:06;20.00;99.90
13256;DHT22;37913;48.370;10.930;2022-08-20T08:10:34;20.20;99.90
13256;DHT22;37913;48.370;10.930;2022-08-20T08:13:04;20.20;99.90
13256;DHT22;37913;48.370;10.930;2022-08-20T08:15:34;20.30;99.90
13256;DHT22;37913;48.370;10.930;2022-08-20T08:18:08;20.20;99.90
13256;DHT22;37913;48.370;10.930;2022-08-20T08:20:41;20.10;99.90
13256;DHT22;37913;48.370;10.930;2022-08-20T08:23:10;19.70;99.90
13256;DHT22;37913;48.370;10.930;2022-08-20T08:25:38;19.30;99.90
13256;DHT22;37913;48.370;10.930;2022-08-20T08:28:06;19.40;99.90
13256;DHT22;37913;48.370;10.930;2022-08-20T08:30:36;19.30;99.90
13256;DHT22;37913;48.370;10.930;2022-08-20T08:33:04;19.10;99.90
13256;DHT22;37913;48.370;10.930;2022-08-20T08:35:49;19.10;99.90
13256;DHT22;37913;48.370;10.930;2022-08-20T08:38:18;19.20;99.90
13256;DHT22;37913;48.370;10.930;2022-08-20T08:40:47;19.60;99.90
13256;DHT22;37913;48.370;10.930;2022-08-20T08:43:17;19.80;99.90
13256;DHT22;37913;48.370;10.930;2022-08-20T08:45:51;19.80;99.90
13256;DHT22;37913;48.370;10.930;2022-08-20T08:48:20;20.10;99.90
13256;DHT22;37913;48.370;10.930;2022-08-20T08:50:51;20.40;99.90
13256;DHT22;37913;48.370;10.930;2022-08-20T08:53:23;20.60;99.90
13256;DHT22;37913;48.370;10.930;2022-08-20T08:55:50;20.50;99.90
13256;DHT22;37913;48.370;10.930;2022-08-20T08:58:17;20.60;99.90
13256;DHT22;37913;48.370;10.930;2022-08-20T09:00:44;20.90;99.90
13256;DHT22;37913;48.370;10.930;2022-08-20T09:03:18;20.80;99.90
13256;DHT22;37913;48.370;10.930;2022-08-20T09:05:51;20.80;99.90
13256;DHT22;37913;48.370;10.930;2022-08-20T09:08:24;20.90;99.90
13256;DHT22;37913;48.370;10.930;2022-08-20T09:10:52;20.30;99.90
13256;DHT22;37913;48.370;10.930;2022-08-20T09:13:19;20.70;99.90
13256;DHT22;37913;48.370;10.930;2022-08-20T09:15:47;20.20;99.90
13256;DHT22;37913;48.370;10.930;2022-08-20T09:18:14;20.40;99.90
13256;DHT22;37913;48.370;10.930;2022-08-20T09:20:41;20.50;99.90
13256;DHT22;37913;48.370;10.930;2022-08-20T09:23:10;20.00;99.90
13256;DHT22;37913;48.370;10.930;2022-08-20T09:25:38;20.10;99.90
13256;DHT22;37913;48.370;10.930;2022-08-20T09:28:05;19.60;99.90
13256;DHT22;37913;48.370;10.930;2022-08-20T09:30:32;19.80;99.90
13256;DHT22;37913;48.370;10.930;2022-08-20T09:33:00;19.50;99.90
13256;DHT22;37913;48.370;10.930;2022-08-20T09:35:27;19.50;99.90
13256;DHT22;37913;48.370;10.930;2022-08-20T09:37:54;19.70;99.90
13256;DHT22;37913;48.370;10.930;2022-08-20T09:40:22;19.80;99.90
13256;DHT22;37913;48.370;10.930;2022-08-20T09:42:50;19.90;99.90
13256;DHT22;37913;48.370;10.930;2022-08-20T09:45:18;19.90;99.90
13256;DHT22;37913;48.370;10.930;2022-08-20T09:47:45;19.90;99.90
13256;DHT22;37913;48.370;10.930;2022-08-20T09:50:12;20.20;99.90
13256;DHT22;37913;48.370;10.930;2022-08-20T09:52:45;20.50;99.90
13256;DHT22;37913;48.370;10.930;2022-08-20T09:55:19;20.40;99.90
13256;DHT22;37913;48.370;10.930;2022-08-20T09:57:47;20.90;99.90
13256;DHT22;37913;48.370;10.930;2022-08-20T10:00:17;21.10;99.90
13256;DHT22;37913;48.370;10.930;2022-08-20T10:02:44;20.90;99.90
13256;DHT22;37913;48.370;10.930;2022-08-20T10:05:12;21.20;99.90
13256;DHT22;37913;48.370;10.930;2022-08-20T10:07:39;20.40;99.90
13256;DHT22;37913;48.370;10.930;2022-08-20T10:10:09;20.80;99.90
13256;DHT22;37913;48.370;10.930;2022-08-20T10:12:37;20.50;99.90
13256;DHT22;37913;48.370;10.930;2022-08-20T10:15:07;20.60;99.90
13256;DHT22;37913;48.370;10.930;2022-08-20T10:17:37;20.70;99.90
13256;DHT22;37913;48.370;10.930;2022-08-20T10:20:06;20.40;99.90
13256;DHT22;37913;48.370;10.930;2022-08-20T10:22:33;20.50;99.90
13256;DHT22;37913;48.370;10.930;2022-08-20T10:25:00;20.00;99.90
13256;DHT22;37913;48.370;10.930;2022-08-20T10:27:27;20.00;99.90
13256;DHT22;37913;48.370;10.930;2022-08-20T10:29:54;20.20;99.90
13256;DHT22;37913;48.370;10.930;2022-08-20T10:32:21;20.20;99.90
13256;DHT22;37913;48.370;10.930;2022-08-20T10:34:49;20.60;99.90
13256;DHT22;37913;48.370;10.930;2022-08-20T10:37:20;21.30;99.90
13256;DHT22;37913;48.370;10.930;2022-08-20T10:39:49;22.00;99.90
13256;DHT22;37913;48.370;10.930;2022-08-20T10:42:16;23.20;99.90
13256;DHT22;37913;48.370;10.930;2022-08-20T10:44:43;24.30;99.90
13256;DHT22;37913;48.370;10.930;2022-08-20T10:47:19;24.70;99.90
13256;DHT22;37913;48.370;10.930;2022-08-20T10:49:49;23.60;99.90
13256;DHT22;37913;48.370;10.930;2022-08-20T10:52:16;23.70;99.90
13256;DHT22;37913;48.370;10.930;2022-08-20T10:54:44;23.40;99.90
13256;DHT22;37913;48.370;10.930;2022-08-20T10:57:14;23.00;99.90
13256;DHT22;37913;48.370;10.930;2022-08-20T10:59:44;22.90;99.90
13256;DHT22;37913;48.370;10.930;2022-08-20T11:02:11;22.80;99.90
13256;DHT22;37913;48.370;10.930;2022-08-20T11:04:39;23.30;99.90
13256;DHT22;37913;48.370;10.930;2022-08-20T11:07:12;23.80;99.90
13256;DHT22;37913;48.370;10.930;2022-08-20T11:09:40;24.70;99.90
13256;DHT22;37913;48.370;10.930;2022-08-20T11:12:07;24.70;99.90
13256;DHT22;37913;48.370;10.930;2022-08-20T11:14:34;25.80;99.90
13256;DHT22;37913;48.370;10.930;2022-08-20T11:17:02;26.90;99.90
13256;DHT22;37913;48.370;10.930;2022-08-20T11:19:29;26.70;99.90
13256;DHT22;37913;48.370;10.930;2022-08-20T11:21:55;25.40;99.90
13256;DHT22;37913;48.370;10.930;2022-08-20T11:24:24;24.40;99.90
13256;DHT22;37913;48.370;10.930;2022-08-20T11:26:51;23.90;99.90
13256;DHT22;37913;48.370;10.930;2022-08-20T11:29:19;23.20;99.90
13256;DHT22;37913;48.370;10.930;2022-08-20T11:31:47;22.50;99.90
13256;DHT22;37913;48.370;10.930;2022-08-20T11:34:14;21.70;99.90
13256;DHT22;37913;48.370;10.930;2022-08-20T11:36:41;21.80;99.90
13256;DHT22;37913;48.370;10.930;2022-08-20T11:39:08;22.10;99.90
13256;DHT22;37913;48.370;10.930;2022-08-20T11:41:36;22.30;99.90
13256;DHT22;37913;48.370;10.930;2022-08-20T11:44:04;22.30;99.90
13256;DHT22;37913;48.370;10.930;2022-08-20T11:46:31;22.00;99.90
13256;DHT22;37913;48.370;10.930;2022-08-20T11:48:58;22.00;99.90
13256;DHT22;37913;48.370;10.930;2022-08-20T11:51:25;21.50;99.90
13256;DHT22;37913;48.370;10.930;2022-08-20T11:53:52;20.90;99.90
13256;DHT22;37913;48.370;10.930;2022-08-20T11:56:19;21.20;99.90
13256;DHT22;37913;48.370;10.930;2022-08-20T11:58:47;21.10;99.90
13256;DHT22;37913;48.370;10.930;2022-08-20T12:01:14;20.60;99.90
13256;DHT22;37913;48.370;10.930;2022-08-20T12:03:41;20.70;99.90
13256;DHT22;37913;48.370;10.930;2022-08-20T12:06:08;21.30;99.90
13256;DHT22;37913;48.370;10.930;2022-08-20T12:08:35;22.00;99.90
13256;DHT22;37913;48.370;10.930;2022-08-20T12:11:02;22.30;99.90
13256;DHT22;37913;48.370;10.930;2022-08-20T12:13:32;23.00;99.90
13256;DHT22;37913;48.370;10.930;2022-08-20T12:16:01;23.20;99.90
13256;DHT22;37913;48.370;10.930;2022-08-20T12:18:29;23.20;99.90
13256;DHT22;37913;48.370;10.930;2022-08-20T12:20:57;23.70;99.90
13256;DHT22;37913;48.370;10.930;2022-08-20T12:23:24;24.30;99.90
13256;DHT22;37913;48.370;10.930;2022-08-20T12:25:50;24.60;99.90
13256;DHT22;37913;48.370;10.930;2022-08-20T12:28:17;24.40;99.90
13256;DHT22;37913;48.370;10.930;2022-08-20T12:30:44;24.00;99.90
13256;DHT22;37913;48.370;10.930;2022-08-20T12:33:13;23.90;99.90
13256;DHT22;37913;48.370;10.930;2022-08-20T12:35:40;23.40;99.90
13256;DHT22;37913;48.370;10.930;2022-08-20T12:38:06;23.20;99.90
13256;DHT22;37913;48.370;10.930;2022-08-20T12:40:34;22.80;99.90
13256;DHT22;37913;48.370;10.930;2022-08-20T12:43:01;22.60;99.90
13256;DHT22;37913;48.370;10.930;2022-08-20T12:45:29;22.90;99.90
13256;DHT22;37913;48.370;10.930;2022-08-20T12:48:00;23.40;99.90
13256;DHT22;37913;48.370;10.930;2022-08-20T12:50:29;24.10;99.90
13256;DHT22;37913;48.370;10.930;2022-08-20T12:52:56;24.20;99.90
13256;DHT22;37913;48.370;10.930;2022-08-20T12:55:23;24.60;99.90
13256;DHT22;37913;48.370;10.930;2022-08-20T12:57:52;24.60;99.90
13256;DHT22;37913;48.370;10.930;2022-08-20T13:00:23;23.90;99.90
13256;DHT22;37913;48.370;10.930;2022-08-20T13:02:52;23.70;16.80
13256;DHT22;37913;48.370;10.930;2022-08-20T13:05:19;23.60;32.90
13256;DHT22;37913;48.370;10.930;2022-08-20T13:07:48;23.70;1.00
13256;DHT22;37913;48.370;10.930;2022-08-20T13:10:17;23.20;1.00
13256;DHT22;37913;48.370;10.930;2022-08-20T13:12:45;23.20;67.90
13256;DHT22;37913;48.370;10.930;2022-08-20T13:15:12;22.60;1.00
13256;DHT22;37913;48.370;10.930;2022-08-20T13:17:39;22.00;1.00
13256;DHT22;37913;48.370;10.930;2022-08-20T13:20:10;22.00;1.00
13256;DHT22;37913;48.370;10.930;2022-08-20T13:22:37;21.70;1.00
13256;DHT22;37913;48.370;10.930;2022-08-20T13:25:07;22.00;1.00
13256;DHT22;37913;48.370;10.930;2022-08-20T13:27:35;22.20;1.00
13256;DHT22;37913;48.370;10.930;2022-08-20T13:30:04;22.40;1.00
13256;DHT22;37913;48.370;10.930;2022-08-20T13:32:32;22.60;1.00
13256;DHT22;37913;48.370;10.930;2022-08-20T13:34:59;22.60;1.00
13256;DHT22;37913;48.370;10.930;2022-08-20T13:37:27;22.70;1.00
13256;DHT22;37913;48.370;10.930;2022-08-20T13:39:55;22.40;1.00
13256;DHT22;37913;48.370;10.930;2022-08-20T13:42:24;21.60;98.60
13256;DHT22;37913;48.370;10.930;2022-08-20T13:44:52;20.60;99.90
13256;DHT22;37913;48.370;10.930;2022-08-20T13:47:21;19.60;99.90
13256;DHT22;37913;48.370;10.930;2022-08-20T13:49:53;19.40;99.90
13256;DHT22;37913;48.370;10.930;2022-08-20T13:52:20;19.00;99.90
13256;DHT22;37913;48.370;10.930;2022-08-20T13:54:47;19.00;99.90
13256;DHT22;37913;48.370;10.930;2022-08-20T13:57:16;19.30;99.90
13256;DHT22;37913;48.370;10.930;2022-08-20T13:59:46;19.60;99.90
13256;DHT22;37913;48.370;10.930;2022-08-20T14:02:15;19.70;99.90
13256;DHT22;37913;48.370;10.930;2022-08-20T14:04:42;19.80;99.90
13256;DHT22;37913;48.370;10.930;2022-08-20T14:07:11;19.60;99.90
13256;DHT22;37913;48.370;10.930;2022-08-20T14:09:40;19.50;99.90
13256;DHT22;37913;48.370;10.930;2022-08-20T14:12:08;19.30;99.90
13256;DHT22;37913;48.370;10.930;2022-08-20T14:14:35;18.90;99.90
13256;DHT22;37913;48.370;10.930;2022-08-20T14:17:15;18.70;99.90
13256;DHT22;37913;48.370;10.930;2022-08-20T14:19:43;18.50;99.90
13256;DHT22;37913;48.370;10.930;2022-08-20T14:22:10;18.30;99.90
13256;DHT22;37913;48.370;10.930;2022-08-20T14:24:37;18.20;99.90
13256;DHT22;37913;48.370;10.930;2022-08-20T14:27:04;18.10;99.90
13256;DHT22;37913;48.370;10.930;2022-08-20T14:29:33;18.00;99.90
13256;DHT22;37913;48.370;10.930;2022-08-20T14:32:00;17.90;99.90
13256;DHT22;37913;48.370;10.930;2022-08-20T14:34:29;17.80;99.90
13256;DHT22;37913;48.370;10.930;2022-08-20T14:36:56;17.80;99.90
13256;DHT22;37913;48.370;10.930;2022-08-20T14:39:34;17.70;99.90
13256;DHT22;37913;48.370;10.930;2022-08-20T14:42:01;17.70;99.90
13256;DHT22;37913;48.370;10.930;2022-08-20T14:44:28;17.60;99.90
13256;DHT22;37913;48.370;10.930;2022-08-20T14:46:55;17.60;99.90
13256;DHT22;37913;48.370;10.930;2022-08-20T14:49:22;17.60;99.90
13256;DHT22;37913;48.370;10.930;2022-08-20T14:51:50;17.70;99.90
13256;DHT22;37913;48.370;10.930;2022-08-20T14:54:17;17.50;99.90
13256;DHT22;37913;48.370;10.930;2022-08-20T14:56:44;17.40;99.90
13256;DHT22;37913;48.370;10.930;2022-08-20T14:59:11;17.30;99.90
13256;DHT22;37913;48.370;10.930;2022-08-20T15:01:38;17.30;99.90
13256;DHT22;37913;48.370;10.930;2022-08-20T15:04:05;17.20;99.90
13256;DHT22;37913;48.370;10.930;2022-08-20T15:06:32;17.30;99.90
13256;DHT22;37913;48.370;10.930;2022-08-20T15:09:00;17.30;99.90
13256;DHT22;37913;48.370;10.930;2022-08-20T15:11:27;17.40;99.90
13256;DHT22;37913;48.370;10.930;2022-08-20T15:13:54;17.30;99.90
13256;DHT22;37913;48.370;10.930;2022-08-20T15:16:21;17.40;99.90
13256;DHT22;37913;48.370;10.930;2022-08-20T15:18:47;17.50;99.90
13256;DHT22;37913;48.370;10.930;2022-08-20T15:21:14;17.60;99.90
13256;DHT22;37913;48.370;10.930;2022-08-20T15:23:41;17.90;99.90
13256;DHT22;37913;48.370;10.930;2022-08-20T15:26:10;18.10;99.90